createdAt,value
2022-12-29T05:47:36.655Z,1.50
2022-12-29T05:50:05.091Z,1.52
2022-12-29T05:52:33.046Z,1.77
2022-12-29T05:55:01.443Z,1.60
2022-12-29T05:57:29.345Z,1.33
2022-12-29T05:59:57.261Z,1.45
2022-12-29T06:02:25.249Z,1.17
2022-12-29T06:04:54.633Z,1.48
2022-12-29T06:07:22.498Z,1.30
2022-12-29T06:09:50.419Z,1.40
2022-12-29T06:12:18.366Z,1.60
2022-12-29T06:14:46.242Z,1.52
2022-12-29T06:17:14.123Z,1.45
2022-12-29T06:19:42.009Z,1.35
2022-12-29T06:22:13.053Z,1.30
2022-12-29T06:24:41.429Z,1.42
2022-12-29T06:27:09.403Z,1.20
2022-12-29T06:29:38.100Z,1.58
2022-12-29T06:32:06.184Z,1.73
2022-12-29T06:34:34.120Z,1.27
2022-12-29T06:37:02.137Z,1.30
2022-12-29T06:39:31.386Z,1.20
2022-12-29T06:41:59.295Z,1.27
2022-12-29T06:44:27.207Z,1.20
2022-12-29T06:46:55.133Z,1.50
2022-12-29T06:49:23.293Z,1.60
2022-12-29T06:51:51.398Z,1.50
2022-12-29T06:54:19.264Z,1.48
2022-12-29T06:56:48.602Z,1.38
2022-12-29T06:59:16.507Z,1.50
2022-12-29T07:01:45.410Z,1.27
2022-12-29T07:04:13.458Z,1.20
2022-12-29T07:06:42.394Z,1.15
2022-12-29T07:09:10.789Z,1.40
2022-12-29T07:11:40.494Z,1.40
2022-12-29T07:14:09.830Z,1.40
2022-12-29T07:16:38.086Z,1.23
2022-12-29T07:19:06.054Z,1.35
2022-12-29T07:21:33.951Z,1.52
2022-12-29T07:24:01.851Z,1.40
2022-12-29T07:26:35.986Z,1.50
2022-12-29T07:29:04.438Z,1.20
2022-12-29T07:31:34.165Z,1.60
2022-12-29T07:34:06.542Z,1.52
2022-12-29T07:36:35.015Z,1.42
2022-12-29T07:39:03.131Z,1.20
2022-12-29T07:41:31.068Z,1.42
2022-12-29T07:43:59.481Z,1.60
2022-12-29T15:02:40.740Z,1.30
2022-12-29T15:05:26.673Z,1.30
2022-12-29T15:07:56.129Z,1.70
2022-12-29T15:10:26.590Z,1.75
2022-12-29T15:13:04.132Z,1.70
2022-12-29T15:15:39.049Z,1.60
2022-12-29T15:18:29.045Z,1.20
2022-12-29T15:20:59.582Z,1.80
2022-12-29T15:23:28.138Z,1.60
2022-12-29T15:26:03.036Z,1.33
2022-12-29T15:28:40.278Z,1.45
2022-12-29T15:31:14.528Z,1.67
2022-12-29T15:33:46.141Z,1.60
2022-12-29T15:36:16.014Z,1.48
2022-12-29T15:38:44.057Z,1.27
2022-12-29T15:41:31.763Z,1.40
2022-12-29T15:44:19.401Z,1.20
2022-12-29T15:46:47.394Z,1.48
2022-12-29T15:49:18.001Z,1.25
2022-12-29T15:51:46.526Z,1.58
2022-12-29T15:54:19.432Z,1.35
2022-12-29T15:56:47.910Z,1.45
2022-12-29T15:59:26.639Z,1.70
2022-12-29T16:01:56.478Z,1.70
2022-12-29T16:04:36.104Z,1.63
2022-12-29T16:07:28.514Z,1.60
2022-12-29T16:09:57.713Z,1.70
2022-12-29T16:12:29.804Z,1.48
2022-12-29T16:14:59.798Z,1.65
2022-12-29T16:17:33.443Z,1.10
2022-12-29T16:20:06.908Z,1.10
2022-12-29T16:22:38.378Z,1.33
2022-12-29T16:25:23.927Z,1.58
2022-12-29T16:27:53.059Z,1.60
2022-12-29T16:30:27.967Z,1.98
2022-12-29T16:33:02.698Z,2.53
2022-12-29T16:35:41.597Z,2.22
2022-12-29T16:38:15.796Z,1.25
2022-12-29T16:40:53.107Z,1.70
2022-12-29T16:43:26.241Z,1.77
2022-12-29T16:46:20.662Z,2.53
2022-12-29T16:48:51.973Z,3.25
2022-12-29T16:51:31.009Z,1.70
2022-12-29T16:53:59.994Z,1.45
2022-12-29T16:56:30.225Z,1.30
2022-12-29T16:59:06.643Z,1.77
2022-12-29T17:01:38.665Z,1.58
2022-12-29T17:04:10.024Z,1.30
2022-12-29T17:06:39.553Z,1.50
2022-12-29T17:09:18.944Z,1.45
2022-12-29T17:12:05.266Z,1.30
2022-12-29T17:14:42.999Z,1.55
2022-12-29T17:17:19.597Z,1.55
2022-12-29T17:19:53.592Z,3.53
2022-12-29T17:22:26.210Z,1.50
2022-12-29T17:24:54.980Z,1.60
2022-12-29T17:27:27.124Z,1.23
2022-12-29T17:29:59.547Z,1.10
2022-12-29T17:32:27.740Z,1.38
2022-12-29T17:34:55.938Z,1.20
2022-12-29T17:37:43.179Z,1.30
2022-12-29T17:40:15.954Z,1.13
2022-12-29T17:42:46.219Z,1.40
2022-12-29T17:45:21.383Z,1.55
2022-12-29T17:47:52.050Z,1.65
2022-12-29T17:50:21.966Z,3.38
2022-12-29T17:53:00.159Z,2.08
2022-12-29T17:55:36.789Z,2.08
2022-12-29T17:58:17.672Z,2.28
2022-12-29T18:00:46.227Z,3.88
2022-12-29T18:03:17.927Z,4.55
2022-12-29T18:05:46.202Z,2.60
2022-12-29T18:08:15.495Z,4.45
2022-12-29T18:10:44.059Z,2.28
2022-12-29T18:13:22.295Z,2.40
2022-12-29T18:15:50.327Z,1.88
2022-12-29T18:18:19.972Z,1.67
2022-12-29T18:20:49.315Z,1.30
2022-12-29T18:23:27.662Z,1.63
2022-12-29T18:26:04.724Z,1.48
2022-12-29T18:28:44.284Z,1.63
2022-12-29T18:31:32.393Z,1.77
2022-12-29T18:34:29.468Z,2.10
2022-12-29T18:37:03.395Z,1.70
2022-12-29T18:39:40.876Z,1.92
2022-12-29T18:42:23.474Z,2.00
2022-12-29T18:45:18.476Z,2.00
2022-12-29T18:47:58.085Z,1.38
2022-12-29T18:50:29.033Z,1.65
2022-12-29T18:53:04.413Z,1.60
2022-12-29T18:55:34.070Z,1.60
2022-12-29T18:58:02.024Z,1.40
2022-12-29T19:00:30.228Z,1.50
2022-12-29T19:02:58.598Z,1.70
2022-12-29T19:05:28.418Z,1.30
2022-12-29T19:07:56.567Z,1.40
2022-12-29T19:10:26.007Z,1.38
2022-12-29T19:12:57.886Z,1.50
2022-12-29T19:15:32.283Z,1.42
2022-12-29T19:18:41.648Z,1.70
2022-12-29T19:20:51.904Z,1.75
2022-12-29T19:23:21.183Z,2.42
2022-12-29T19:25:50.207Z,3.00
2022-12-29T19:28:21.992Z,3.65
2022-12-29T19:30:52.600Z,4.90
2022-12-29T19:33:22.107Z,5.30
2022-12-29T19:35:50.234Z,13.75
2022-12-29T19:38:18.311Z,11.27
2022-12-29T19:40:50.241Z,13.45
2022-12-29T19:43:19.891Z,14.27
2022-12-29T19:45:47.935Z,7.13
2022-12-29T19:48:20.353Z,5.18
2022-12-29T19:50:48.813Z,7.13
2022-12-29T19:53:17.497Z,6.75
2022-12-29T19:55:46.042Z,7.47
2022-12-29T19:58:14.676Z,12.90
2022-12-29T20:00:44.970Z,7.60
2022-12-29T20:03:13.256Z,4.75
2022-12-29T20:05:41.812Z,5.80
2022-12-29T20:08:10.520Z,3.70
2022-12-29T20:10:38.444Z,4.40
2022-12-29T20:13:06.526Z,9.68
2022-12-29T20:15:34.620Z,4.43
2022-12-29T20:18:13.565Z,3.83
2022-12-29T20:20:42.586Z,3.22
2022-12-29T20:23:10.593Z,4.10
2022-12-29T20:25:47.041Z,5.13
2022-12-29T20:28:17.047Z,7.60
2022-12-29T20:30:45.325Z,4.07
2022-12-29T20:33:14.631Z,4.40
2022-12-29T20:35:42.566Z,3.22
2022-12-29T20:38:10.500Z,3.25
2022-12-29T20:40:46.162Z,3.03
2022-12-29T20:43:16.038Z,3.00
2022-12-29T20:45:44.251Z,2.10
2022-12-29T20:48:12.380Z,2.83
2022-12-29T20:50:41.868Z,3.08
2022-12-29T20:53:09.889Z,1.30
2022-12-29T20:55:40.818Z,1.40
2022-12-29T20:58:25.291Z,1.67
